Hlavní strana
METAR-TAF:

METAR-TAF

Letiště :

Gran Canaria, Španělsko

Letiště Gran Canaria

zeměpisná šířka: 27-56N, zeměpisná délka: 015-23W, výška: 23 m

Aktuální stav počasí

Zpráva byla vytvořena před 11 minutami, v 09:30 UTC
Severoseverovýchodní vítr 16 kt
Teplota 18°C
Vlhkost vzduchu 68%
Tlak 1026 hPa
Viditelnost 10 km a více
Oblačno až skoro zataženo ve výšce 2200 ft

METAR: GCLP 240930Z 02016KT 9999 BKN022 18/12 Q1026 NOSIG

Čas: 09:41 (09:41 UTC)

Předpověď počasí

Zpráva byla vytvořena před 1 hodinou a 41 minutami, v 08:00 UTC
Předpověď platná od 24 v 09 UTC do 25 v 09 UTC
Severoseverovýchodní vítr 16 kt
Viditelnost 10 km a více
Skoro jasno ve výšce 2000 ft

TAF: GCLP 240800Z 2409/2509 03016KT 9999 FEW020 TX21/2414Z TN16/2506Z

Stav a předpovědi počasí z více než 4 000 letišť (zprávy METAR a TAF).

Červené a žluté tečky na mapě představují dostupné meteorologické stanice.

Když kurzor umístíte na tečku, zobrazí se název stanice.

Pak kliknutím zobrazíte stav a předpověď počasí.

Chcete-li změnit mapu, kliknutím na zelené tlačítko se znaménkem +mapu přiblížíte, kliknutím na zelené tlačítko se znaménkem – mapu oddálíte a kliknutím na zelené šipky přejdete na sousední mapy.


METAR-TAF: